Terminal Aerodrome Forecast
Issued by NWS

Home | Current Version | Previous Version | Text Only | Print | Product List | Glossary On
Versions: 1 2 3 4 5 6 7 8 9 10 11 12 13 14 15 16 17 18 19
919
FTUS43 KDLH 211136
TAFHIB
TAF
KHIB 211136Z 2112/2212 31017G28KT 6SM -SHSN SCT015 BKN025
     FM211300 32016G27KT P6SM VCSH BKN025
     FM212100 31012KT P6SM BKN030
     FM220200 32010KT P6SM SCT030=

USA.gov is the U.S. government's official web portal to all federal, state and local government web resources and services.